Latest Weather Observations for Ceduna

IDS60801

Issued at 5:05 pm CST Friday 19 September 2014 (issued every 30 minutes, with the page automatically refreshed every 10 minutes)

About weather observations | Map of weather stations | Latest weather observations for SA | Other Formats
Station Details ID: 018012 Name: CEDUNA AMO Lat: -32.13 Lon: 133.70 Height: 15.3 m
Data from the previous 72 hours. | See also: Recent months at Ceduna
Date/Time
CST
Temp
°C
App
Temp
°C
Dew
Point
Rel
Hum
%
Delta-T
°C
Wind Press
QNH
hPa
Press
MSL
hPa
Rain
since 9 am
mm
Dir
 
Spd
km/h
Gust
km/h
Spd
kts
Gust
kts
19/05:00pm 19.0 13.4 5.2 40 6.7 SSE 24 32 13 17 1019.2 1019.2 0.0
19/04:30pm 19.3 13.4 5.6 40 6.7 SSE 26 32 14 17 1019.1 1019.1 0.0
19/04:00pm 21.0 14.7 3.9 32 8.2 SSE 26 33 14 18 1018.9 1018.9 0.0
19/03:30pm 21.4 15.5 4.0 32 8.4 S 24 32 13 17 1019.1 1019.1 0.0
19/03:00pm 21.7 15.9 4.2 31 8.5 S 24 30 13 16 1019.3 1019.3 0.0
19/02:30pm 22.1 16.9 3.3 29 9.0 S 20 26 11 14 1019.5 1019.5 0.0
19/02:00pm 21.9 16.8 3.2 29 8.9 S 19 26 10 14 1019.9 1019.9 0.0
19/01:30pm 21.1 15.9 5.3 35 7.8 S 22 28 12 15 1020.5 1020.5 0.0
19/01:00pm 21.2 16.4 5.4 35 7.8 SSW 20 28 11 15 1020.9 1020.9 0.0
19/12:30pm 21.5 16.8 3.2 30 8.7 SSW 17 22 9 12 1021.1 1021.1 0.0
19/12:00pm 21.3 17.8 3.4 30 8.5 SSW 11 17 6 9 1021.6 1021.6 0.0
19/11:30am 21.8 17.8 0.5 24 9.6 NE 11 15 6 8 1022.1 1022.1 0.0
19/11:00am 21.5 18.1 1.8 27 9.1 N 9 17 5 9 1022.5 1022.5 0.0
19/10:30am 20.2 16.0 1.8 29 8.4 NE 13 20 7 11 1022.8 1022.8 0.0
19/10:00am 19.2 15.2 2.7 33 7.6 NE 13 19 7 10 1023.2 1023.2 0.0
19/09:30am 17.2 12.9 3.0 38 6.5 NNE 15 19 8 10 1023.3 1023.3 0.0
19/09:00am 14.8 9.5 2.9 44 5.3 NE 20 26 11 14 1023.4 1023.4 0.0
19/08:30am 12.6 7.5 3.0 52 4.2 NE 19 24 10 13 1023.3 1023.3 0.0
19/08:00am 10.3 6.3 3.1 61 3.1 ENE 13 20 7 11 1023.1 1023.1 0.0
19/07:30am 6.4 3.2 2.8 78 1.5 ENE 9 11 5 6 1023.0 1023.0 0.0
19/07:00am 2.9 -0.2 1.3 89 0.6 ENE 7 9 4 5 1022.7 1022.7 0.0
19/06:30am 2.2 -1.4 0.6 89 0.6 ENE 9 11 5 6 1022.6 1022.6 0.0
19/06:00am 2.9 -0.2 1.1 88 0.7 NE 7 11 4 6 1022.4 1022.4 0.0
19/05:30am 3.6 -0.2 1.5 86 0.8 E 11 13 6 7 1022.0 1022.0 0.0
19/05:00am 3.8 -0.3 2.0 88 0.7 E 13 15 7 8 1021.6 1021.6 0.0
19/04:30am 4.1 0.0 2.1 87 0.8 E 13 13 7 7 1021.4 1021.4 0.0
19/04:00am 5.1 0.7 2.6 84 1.0 E 15 19 8 10 1021.5 1021.5 0.0
19/03:30am 5.6 0.9 2.9 83 1.1 E 17 20 9 11 1021.4 1021.4 0.0
19/03:00am 5.7 1.0 3.3 84 1.0 E 17 19 9 10 1021.7 1021.7 0.0
19/02:30am 4.8 0.8 2.8 87 0.8 E 13 15 7 8 1022.0 1022.0 0.0
19/02:00am 4.4 0.8 2.9 90 0.6 E 11 13 6 7 1022.2 1022.2 0.0
19/01:30am 4.4 1.2 2.9 90 0.6 E 9 13 5 7 1022.4 1022.4 0.0
19/01:00am 4.6 1.7 2.6 87 0.8 ESE 7 9 4 5 1022.6 1022.6 0.0
19/12:30am 5.1 2.4 2.6 84 1.0 E 6 7 3 4 1022.8 1022.8 0.0
 
Date/Time
CST
Temp
°C
App
Temp
°C
Dew
Point
Rel
Hum
%
Delta-T
°C
Wind Press
QNH
hPa
Press
MSL
hPa
Rain
since 9 am
mm
Dir
 
Spd
km/h
Gust
km/h
Spd
kts
Gust
kts
18/11:30pm 5.5 2.8 2.8 83 1.1 ESE 6 7 3 4 1023.5 1023.5 0.0
18/11:00pm 6.8 3.7 3.5 79 1.4 SE 9 13 5 7 1023.8 1023.8 0.0
18/10:30pm 8.6 4.4 3.7 71 2.1 SE 15 17 8 9 1024.0 1024.0 0.0
18/10:00pm 9.6 5.3 3.3 65 2.7 SE 15 17 8 9 1024.3 1024.3 0.0
18/09:30pm 10.2 5.9 3.3 62 3.0 SE 15 19 8 10 1024.5 1024.5 0.0
18/09:00pm 11.0 6.3 3.2 58 3.4 SE 17 20 9 11 1024.3 1024.3 0.0
18/08:30pm 11.8 6.8 3.4 56 3.7 SE 19 22 10 12 1024.0 1024.0 0.0
18/08:00pm 11.7 7.9 3.8 58 3.5 SE 13 19 7 10 1023.9 1023.9 0.0
18/07:30pm 12.6 7.9 3.3 53 4.1 SE 17 22 9 12 1023.6 1023.6 0.0
18/07:00pm 13.4 8.4 3.6 51 4.4 SSE 19 24 10 13 1023.2 1023.2 0.0
18/06:30pm 14.2 7.9 3.6 49 4.8 SSE 26 35 14 19 1023.0 1023.0 0.0
18/06:00pm 15.5 9.2 4.0 46 5.3 SSE 26 35 14 19 1022.6 1022.6 0.0
18/05:30pm 15.3 8.8 4.5 48 5.0 SSE 28 37 15 20 1022.8 1022.8 0.0
18/05:00pm 15.7 9.7 5.4 50 4.9 SSE 26 37 14 20 1022.7 1022.7 0.0
18/04:30pm 15.8 9.5 5.5 50 4.9 S 28 37 15 20 1022.9 1022.9 0.0
18/04:00pm 16.2 10.2 5.5 49 5.1 S 26 35 14 19 1022.8 1022.8 0.0
18/03:30pm 16.6 10.3 5.8 49 5.2 S 28 35 15 19 1023.0 1023.0 0.0
18/03:00pm 17.4 11.0 5.3 45 5.8 S 28 33 15 18 1022.9 1022.9 0.0
18/02:30pm 17.1 11.2 6.0 48 5.4 S 26 35 14 19 1022.7 1022.7 0.0
18/02:00pm 17.8 11.5 5.9 45 5.8 S 28 35 15 19 1022.8 1022.8 0.0
18/01:30pm 19.2 13.9 4.9 39 6.9 S 22 30 12 16 1023.0 1023.0 0.0
18/01:00pm 18.5 13.3 5.5 42 6.3 S 22 32 12 17 1023.7 1023.7 0.0
18/12:30pm 18.1 13.5 5.5 43 6.1 S 19 24 10 13 1023.9 1023.9 0.0
18/12:00pm 18.1 13.9 3.8 38 6.7 SSE 15 20 8 11 1024.3 1024.3 0.0
18/11:30am 18.8 15.3 3.6 36 7.1 NE 11 17 6 9 1024.7 1024.7 0.0
18/11:00am 17.4 14.1 4.4 42 6.1 SE 11 20 6 11 1024.9 1024.9 0.0
18/10:30am 16.8 12.7 4.1 43 5.9 E 15 22 8 12 1025.4 1025.4 0.0
18/10:00am 15.3 10.9 4.5 48 5.0 ESE 17 22 9 12 1025.7 1025.7 0.0
18/09:30am 14.1 9.8 5.3 55 4.1 ESE 17 20 9 11 1025.8 1025.8 0.0
18/09:00am 12.6 8.4 5.7 63 3.2 E 17 22 9 12 1026.1 1026.1 0.0
18/08:30am 11.3 8.3 6.1 70 2.4 ESE 11 15 6 8 1025.9 1025.9 0.0
18/08:00am 8.2 5.2 5.8 85 1.1 E 11 15 6 8 1025.9 1025.9 0.0
18/07:30am 5.6 2.7 4.4 92 0.5 ESE 9 11 5 6 1025.4 1025.4 0.0
18/07:00am 4.1 1.0 3.4 95 0.3 ESE 9 11 5 6 1024.8 1024.8 0.0
18/06:30am 3.5 -0.1 3.0 97 0.2 ESE 11 15 6 8 1024.6 1024.6 0.0
18/06:00am 3.8 0.3 3.3 97 0.2 ESE 11 13 6 7 1024.5 1024.5 0.0
18/05:30am 3.6 -0.1 2.6 93 0.4 SE 11 15 6 8 1024.2 1024.2 0.0
18/05:00am 2.4 -0.7 1.6 94 0.3 E 7 9 4 5 1023.9 1023.9 0.0
18/04:30am 3.2 0.2 2.2 93 0.4 NE 7 9 4 5 1023.7 1023.7 0.0
18/04:00am 4.2 1.7 3.5 95 0.3 ESE 6 7 3 4 1024.0 1024.0 0.0
18/03:30am 4.4 1.3 3.7 95 0.3 E 9 11 5 6 1023.9 1023.9 0.0
18/03:00am 3.5 -0.1 3.0 97 0.2 ESE 11 13 6 7 1024.1 1024.1 0.0
18/02:30am 3.7 0.4 2.7 93 0.4 E 9 11 5 6 1024.0 1024.0 0.0
18/02:00am 4.8 2.1 3.8 93 0.4 E 7 9 4 5 1024.4 1024.4 0.0
18/01:30am 5.8 2.2 5.1 95 0.3 E 13 15 7 8 1024.5 1024.5 0.0
18/01:00am 5.7 2.4 4.5 92 0.5 ENE 11 13 6 7 1024.5 1024.5 0.0
18/12:30am 5.5 1.8 4.6 94 0.4 E 13 15 7 8 1024.8 1024.8 0.0
18/12:00am 5.6 1.9 4.4 92 0.5 E 13 15 7 8 1025.1 1025.1 0.0
 
Date/Time
CST
Temp
°C
App
Temp
°C
Dew
Point
Rel
Hum
%
Delta-T
°C
Wind Press
QNH
hPa
Press
MSL
hPa
Rain
since 9 am
mm
Dir
 
Spd
km/h
Gust
km/h
Spd
kts
Gust
kts
17/11:30pm 6.7 3.5 5.3 91 0.6 E 11 13 6 7 1025.3 1025.3 0.0
17/11:00pm 7.6 4.2 6.0 90 0.7 E 13 15 7 8 1025.2 1025.2 0.0
17/10:30pm 7.9 5.3 5.9 87 0.9 ESE 9 11 5 6 1025.5 1025.5 0.0
17/10:00pm 8.8 5.5 6.4 85 1.1 ESE 13 15 7 8 1025.4 1025.4 0.0
17/09:30pm 11.7 8.3 7.8 77 1.9 SE 15 17 8 9 1025.2 1025.2 0.0
17/09:00pm 12.0 8.6 7.7 75 2.1 SSE 15 19 8 10 1025.1 1025.1 0.0
17/08:30pm 12.4 9.4 7.7 73 2.3 SSE 13 17 7 9 1024.7 1024.7 0.0
17/08:00pm 13.5 9.7 7.6 67 2.9 SSE 17 22 9 12 1024.3 1024.3 0.0
17/07:30pm 13.6 9.8 7.7 67 2.9 SSE 17 26 9 14 1024.0 1024.0 0.0
17/07:00pm 13.7 9.9 7.6 66 3.0 S 17 22 9 12 1023.6 1023.6 0.0
17/06:30pm 14.3 9.8 7.1 62 3.5 S 20 28 11 15 1023.5 1023.5 0.0
17/06:00pm 15.0 9.6 8.0 63 3.5 S 26 32 14 17 1023.4 1023.4 0.0
17/05:30pm 15.6 10.0 7.3 57 4.1 S 26 32 14 17 1023.3 1023.3 0.0
17/05:00pm 16.7 11.6 7.5 54 4.6 S 24 33 13 18 1023.0 1023.0 0.0
17/04:30pm 16.8 11.5 6.6 51 5.0 S 24 32 13 17 1022.7 1022.7 0.0
17/04:00pm 17.2 11.7 6.1 48 5.4 S 24 30 13 16 1022.8 1022.8 0.0
17/03:30pm 17.6 12.0 7.2 50 5.2 SSW 26 32 14 17 1022.9 1022.9 0.0
17/03:00pm 17.9 12.1 6.3 46 5.7 SSW 26 32 14 17 1022.9 1022.9 0.0
17/02:30pm 18.0 12.6 6.2 46 5.8 SSW 24 32 13 17 1023.0 1023.0 0.0
17/02:00pm 18.4 13.1 5.1 41 6.4 SSW 22 28 12 15 1023.0 1023.0 0.0
17/01:30pm 17.3 11.3 5.2 45 5.8 SW 26 32 14 17 1023.2 1023.2 0.0
17/01:00pm 18.3 12.7 5.5 43 6.2 SW 24 32 13 17 1023.2 1023.2 0.0
17/12:30pm 17.7 12.5 5.5 44 5.9 SW 22 30 12 16 1023.4 1023.4 0.0
17/12:00pm 17.6 12.1 4.2 41 6.3 SW 22 30 12 16 1023.7 1023.7 0.0
17/11:30am 18.0 14.8 5.3 43 6.1 S 11 22 6 12 1024.1 1024.1 0.0
17/11:00am 17.2 13.9 4.4 42 6.0 SSE 11 19 6 10 1024.4 1024.4 0.0
17/10:30am 15.9 12.6 4.8 47 5.2 S 11 15 6 8 1024.6 1024.6 0.0
17/10:00am 16.6 14.5 5.8 49 5.2 ENE 6 15 3 8 1024.8 1024.8 0.0
17/09:30am 15.2 12.6 6.0 54 4.4 SE 9 17 5 9 1024.8 1024.8 0.0
17/09:00am 15.3 13.6 7.6 60 3.8 SE 6 11 3 6 1024.7 1024.7 0.0
17/08:30am 13.3 11.2 6.8 64 3.1 NNE 7 9 4 5 1024.4 1024.4 0.0
17/08:00am 11.3 10.0 7.6 78 1.8 NNE 4 9 2 5 1024.1 1024.1 0.0
17/07:30am 8.1 7.3 6.6 90 0.7 CALM 0 0 0 0 1023.7 1023.7 0.0
17/07:00am 6.6 4.1 5.0 89 0.7 N 7 9 4 5 1023.3 1023.3 0.0
17/06:30am 5.3 2.8 4.6 95 0.3 NNE 7 9 4 5 1023.2 1023.2 0.0
17/06:00am 6.0 3.7 4.6 91 0.6 NNE 6 9 3 5 1022.9 1022.9 0.0
17/05:30am 7.7 5.5 6.4 91 0.6 N 7 7 4 4 1022.5 1022.5 0.0
17/05:00am 7.8 5.6 6.0 88 0.8 NNE 7 9 4 5 1022.3 1022.3 0.0
17/04:30am 7.3 4.2 5.5 88 0.8 N 11 13 6 7 1022.0 1022.0 0.0
17/04:00am 7.4 5.1 5.6 88 0.8 NNE 7 9 4 5 1021.9 1021.9 0.0
17/03:30am 8.5 6.3 6.1 85 1.1 E 7 9 4 5 1021.7 1021.7 0.0
17/03:00am 8.1 6.3 5.6 84 1.1 E 4 9 2 5 1021.6 1021.6 0.0
17/02:30am 7.5 5.2 5.7 88 0.8 ENE 7 9 4 5 1021.8 1021.8 0.0
17/02:00am 8.6 6.7 6.9 89 0.8 E 6 9 3 5 1022.0 1022.0 0.0
17/01:30am 8.5 6.7 7.0 90 0.7 N 6 7 3 4 1022.2 1022.2 0.0
17/01:00am 8.6 6.3 7.5 93 0.5 NNE 9 13 5 7 1022.2 1022.2 0.0
17/12:30am 9.7 7.7 8.7 93 0.5 NNE 9 11 5 6 1022.2 1022.2 0.0
17/12:00am 10.0 8.0 8.6 91 0.7 ENE 9 9 5 5 1022.3 1022.3 0.0
 
Date/Time
CST
Temp
°C
App
Temp
°C
Dew
Point
Rel
Hum
%
Delta-T
°C
Wind Press
QNH
hPa
Press
MSL
hPa
Rain
since 9 am
mm
Dir
 
Spd
km/h
Gust
km/h
Spd
kts
Gust
kts
16/11:30pm 10.5 8.6 8.9 90 0.8 E 9 9 5 5 1022.3 1022.3 0.0
16/11:00pm 11.5 9.3 9.3 86 1.1 E 11 15 6 8 1022.5 1022.5 0.0
16/10:30pm 13.7 10.8 8.0 68 2.8 SSW 13 19 7 10 1022.4 1022.4 0.0
16/10:00pm 13.4 11.7 9.7 78 1.9 SW 9 11 5 6 1022.4 1022.4 0.0
16/09:30pm 13.3 11.6 9.8 79 1.8 S 9 13 5 7 1022.2 1022.2 0.0
16/09:00pm 13.3 10.0 8.0 70 2.6 SSW 15 19 8 10 1022.1 1022.1 0.0
16/08:30pm 13.6 9.8 7.7 67 2.9 SSW 17 24 9 13 1022.2 1022.2 0.0
16/08:00pm 13.9 10.1 8.9 72 2.5 SSW 19 28 10 15 1021.9 1021.9 0.0
16/07:30pm 14.2 8.9 7.0 62 3.5 SSW 24 32 13 17 1021.5 1021.5 0.0
16/07:00pm 14.3 8.5 7.8 65 3.2 SW 28 41 15 22 1021.2 1021.2 0.0
16/06:30pm 14.4 9.1 8.6 68 2.9 SSW 26 35 14 19 1021.0 1021.0 0.0
16/06:00pm 15.0 9.5 9.1 68 3.0 SW 28 35 15 19 1020.7 1020.7 0.0
16/05:30pm 15.7 9.8 9.1 65 3.4 SW 30 37 16 20 1020.3 1020.3 0.0

Other Formats:

Comma delimited format used in spreadsheet applications
http://www.bom.gov.au/fwo/IDS60801/IDS60801.94653.axf

JavaScript Object Notation format (JSON) in row-major order
http://www.bom.gov.au/fwo/IDS60801/IDS60801.94653.json